Aérodrome :
LOGIN :

S'inscrire | Disclaimer

   EN    FR    IT 

 










Légende :    VFR   VFR Marginal   IFR   IFR Intensif   IFR Très Intensif
Visi : 
Plafond : 
>= 8 km
>= 3000ft
5 à 8 km
1000 à 3000 ft
1500m à 5 km
500 à 1000 ft
800 à 1500m
200 à 500 ft
< 800m
< 200 ft
Symboles :   Orages  Brouillard  Fortes neiges  Fortes précipitations  Vent > 20 kt
SIGMETs :   Divers  Orages  Givrage  Turbulence  Onde Orograph.  Cendres Volcan.







- Altitude de l'aérodrome : 37 ft


EHVL - Vlieland Heliport

DERNIER METAR :
  • 260726Z AUTO 23019KT 9999 FEW025 BKN029 OVC033 15/11 Q1010 BLU

METARs EXPIRÉS :
  • 260725Z AUTO 24020KT 9999 BKN024 BKN029 OVC034 16/11 Q1010 WHT
  • 260655Z AUTO 24019KT 9999 OVC023 15/12 Q1010 WHT
  • 260625Z AUTO 24018KT 9999 OVC022 14/11 Q1010 WHT
  • 260559Z AUTO 24018KT 9999 BKN022 OVC026 14/12 Q1010 WHT
  • 260555Z AUTO 24017KT 9999 SCT022 OVC025 14/11 Q1011 WHT
  • 260551Z AUTO 24018KT 9999 FEW022 OVC025 14/11 Q1011 BLU
  • 260525Z AUTO 24018KT 9999 SCT019 OVC023 14/11 Q1011 WHT
  • 260455Z AUTO 24018KT 9999 OVC021 14/11 Q1011 WHT
  • 260441Z AUTO 24017KT 9999 BKN022 BKN028 OVC031 14/11 Q1011 WHT
  • 260429Z AUTO 24017KT 9999 SCT021 BKN029 BKN032 13/11 Q1011 WHT

Prévision TAF périmée.
Pas de NOTAMs connus pour ce terrain.



MET'MAP, la Météo Aéronautique d'un coup d'oeil ! - Copyright ORBIFLY Décembre 2007 - Disclaimer

ORBIFLY MET'MAP TEAM :

Programmation & Développement : Alexandra Zaïnal
Conception & Développement : Baudouin d'Aumeries
Co-Programmation & Développement : Marc-Olivier Méhu
Soutien technique & logistique : Manuel Goepfert

Contact : metmap@orbifly.com




SOURCES & CREDITS :

   NOAA